sensor_id;sensor_type;location;lat;lon;timestamp;temperature;humidity
35645;DHT22;21764;52.042;6.830;2023-06-10T00:01:32;19.80;67.50
35645;DHT22;21764;52.042;6.830;2023-06-10T00:06:36;19.70;68.30
35645;DHT22;21764;52.042;6.830;2023-06-10T00:11:39;19.70;68.70
35645;DHT22;21764;52.042;6.830;2023-06-10T00:16:40;19.60;69.00
35645;DHT22;21764;52.042;6.830;2023-06-10T00:21:41;19.50;69.60
35645;DHT22;21764;52.042;6.830;2023-06-10T00:26:41;19.50;69.70
35645;DHT22;21764;52.042;6.830;2023-06-10T00:31:44;19.40;70.20
35645;DHT22;21764;52.042;6.830;2023-06-10T00:36:45;19.30;71.50
35645;DHT22;21764;52.042;6.830;2023-06-10T00:41:46;19.30;71.10
35645;DHT22;21764;52.042;6.830;2023-06-10T00:46:46;19.20;71.50
35645;DHT22;21764;52.042;6.830;2023-06-10T00:51:47;19.10;72.10
35645;DHT22;21764;52.042;6.830;2023-06-10T00:56:48;18.90;72.70
35645;DHT22;21764;52.042;6.830;2023-06-10T01:01:50;18.90;73.10
35645;DHT22;21764;52.042;6.830;2023-06-10T01:12:14;18.70;74.10
35645;DHT22;21764;52.042;6.830;2023-06-10T01:17:17;18.60;74.80
35645;DHT22;21764;52.042;6.830;2023-06-10T01:22:18;18.60;75.30
35645;DHT22;21764;52.042;6.830;2023-06-10T01:27:21;18.50;75.60
35645;DHT22;21764;52.042;6.830;2023-06-10T01:32:50;18.40;76.10
35645;DHT22;21764;52.042;6.830;2023-06-10T01:37:53;18.30;76.70
35645;DHT22;21764;52.042;6.830;2023-06-10T01:42:55;18.20;77.50
35645;DHT22;21764;52.042;6.830;2023-06-10T01:47:55;18.10;77.80
35645;DHT22;21764;52.042;6.830;2023-06-10T01:52:57;18.10;79.00
35645;DHT22;21764;52.042;6.830;2023-06-10T01:57:58;18.10;78.80
35645;DHT22;21764;52.042;6.830;2023-06-10T02:02:59;18.00;79.30
35645;DHT22;21764;52.042;6.830;2023-06-10T02:07:59;18.00;79.70
35645;DHT22;21764;52.042;6.830;2023-06-10T02:13:01;17.90;80.10
35645;DHT22;21764;52.042;6.830;2023-06-10T02:18:01;17.80;80.60
35645;DHT22;21764;52.042;6.830;2023-06-10T02:23:03;17.80;81.10
35645;DHT22;21764;52.042;6.830;2023-06-10T02:28:04;17.80;81.60
35645;DHT22;21764;52.042;6.830;2023-06-10T02:33:04;17.70;82.20
35645;DHT22;21764;52.042;6.830;2023-06-10T02:38:05;17.60;82.90
35645;DHT22;21764;52.042;6.830;2023-06-10T02:43:06;17.50;83.40
35645;DHT22;21764;52.042;6.830;2023-06-10T02:48:07;17.50;83.90
35645;DHT22;21764;52.042;6.830;2023-06-10T02:53:07;17.40;84.30
35645;DHT22;21764;52.042;6.830;2023-06-10T02:58:08;17.30;84.80
35645;DHT22;21764;52.042;6.830;2023-06-10T03:03:09;17.30;85.40
35645;DHT22;21764;52.042;6.830;2023-06-10T03:08:11;17.20;86.00
35645;DHT22;21764;52.042;6.830;2023-06-10T03:13:11;17.20;86.50
35645;DHT22;21764;52.042;6.830;2023-06-10T03:18:12;17.10;87.00
35645;DHT22;21764;52.042;6.830;2023-06-10T03:23:13;17.00;87.60
35645;DHT22;21764;52.042;6.830;2023-06-10T03:28:14;17.00;88.10
35645;DHT22;21764;52.042;6.830;2023-06-10T03:33:14;16.90;88.50
35645;DHT22;21764;52.042;6.830;2023-06-10T03:38:15;17.00;88.60
35645;DHT22;21764;52.042;6.830;2023-06-10T03:43:16;17.20;88.00
35645;DHT22;21764;52.042;6.830;2023-06-10T03:48:16;17.40;87.60
35645;DHT22;21764;52.042;6.830;2023-06-10T03:53:17;17.60;87.00
35645;DHT22;21764;52.042;6.830;2023-06-10T03:58:18;17.70;86.50
35645;DHT22;21764;52.042;6.830;2023-06-10T04:03:18;17.90;85.70
35645;DHT22;21764;52.042;6.830;2023-06-10T04:08:21;18.20;84.70
35645;DHT22;21764;52.042;6.830;2023-06-10T04:13:22;18.30;84.70
35645;DHT22;21764;52.042;6.830;2023-06-10T04:18:23;18.50;83.70
35645;DHT22;21764;52.042;6.830;2023-06-10T04:23:23;18.70;83.00
35645;DHT22;21764;52.042;6.830;2023-06-10T04:28:25;19.00;82.00
35645;DHT22;21764;52.042;6.830;2023-06-10T04:33:25;19.30;80.80
35645;DHT22;21764;52.042;6.830;2023-06-10T04:38:26;19.90;78.80
35645;DHT22;21764;52.042;6.830;2023-06-10T04:43:27;20.20;77.60
35645;DHT22;21764;52.042;6.830;2023-06-10T04:48:28;20.60;76.20
35645;DHT22;21764;52.042;6.830;2023-06-10T04:53:29;20.60;75.80
35645;DHT22;21764;52.042;6.830;2023-06-10T04:58:30;20.80;75.20
35645;DHT22;21764;52.042;6.830;2023-06-10T05:03:30;21.10;73.90
35645;DHT22;21764;52.042;6.830;2023-06-10T05:08:31;21.90;71.30
35645;DHT22;21764;52.042;6.830;2023-06-10T05:13:32;22.20;70.40
35645;DHT22;21764;52.042;6.830;2023-06-10T05:18:32;22.90;67.50
35645;DHT22;21764;52.042;6.830;2023-06-10T05:23:33;23.20;66.30
35645;DHT22;21764;52.042;6.830;2023-06-10T05:28:34;23.30;65.50
35645;DHT22;21764;52.042;6.830;2023-06-10T05:33:35;24.20;62.80
35645;DHT22;21764;52.042;6.830;2023-06-10T05:38:36;24.90;60.00
35645;DHT22;21764;52.042;6.830;2023-06-10T05:43:37;25.90;59.00
35645;DHT22;21764;52.042;6.830;2023-06-10T05:48:37;27.10;57.30
35645;DHT22;21764;52.042;6.830;2023-06-10T05:53:38;28.10;55.40
35645;DHT22;21764;52.042;6.830;2023-06-10T05:58:39;28.20;55.20
35645;DHT22;21764;52.042;6.830;2023-06-10T06:03:39;30.10;52.20
35645;DHT22;21764;52.042;6.830;2023-06-10T06:08:40;30.70;50.70
35645;DHT22;21764;52.042;6.830;2023-06-10T06:13:41;30.50;50.50
35645;DHT22;21764;52.042;6.830;2023-06-10T06:18:42;30.40;51.00
35645;DHT22;21764;52.042;6.830;2023-06-10T06:23:43;33.20;47.20
35645;DHT22;21764;52.042;6.830;2023-06-10T06:28:44;34.20;45.30
35645;DHT22;21764;52.042;6.830;2023-06-10T06:33:44;33.50;45.90
35645;DHT22;21764;52.042;6.830;2023-06-10T06:38:45;35.60;43.70
35645;DHT22;21764;52.042;6.830;2023-06-10T06:43:46;35.90;43.20
35645;DHT22;21764;52.042;6.830;2023-06-10T06:48:47;35.00;43.80
35645;DHT22;21764;52.042;6.830;2023-06-10T06:53:47;35.30;43.20
35645;DHT22;21764;52.042;6.830;2023-06-10T06:58:50;36.20;41.00
35645;DHT22;21764;52.042;6.830;2023-06-10T07:03:51;36.90;40.60
35645;DHT22;21764;52.042;6.830;2023-06-10T07:08:51;38.20;39.20
35645;DHT22;21764;52.042;6.830;2023-06-10T07:13:52;37.00;40.30
35645;DHT22;21764;52.042;6.830;2023-06-10T07:18:53;38.40;38.40
35645;DHT22;21764;52.042;6.830;2023-06-10T07:23:54;40.90;36.40
35645;DHT22;21764;52.042;6.830;2023-06-10T07:28:55;40.20;35.40
35645;DHT22;21764;52.042;6.830;2023-06-10T07:33:56;39.50;35.70
35645;DHT22;21764;52.042;6.830;2023-06-10T07:38:56;39.90;35.30
35645;DHT22;21764;52.042;6.830;2023-06-10T07:43:57;41.20;33.70
35645;DHT22;21764;52.042;6.830;2023-06-10T07:48:58;41.20;33.70
35645;DHT22;21764;52.042;6.830;2023-06-10T07:53:58;40.90;33.70
35645;DHT22;21764;52.042;6.830;2023-06-10T07:58:59;40.20;33.50
35645;DHT22;21764;52.042;6.830;2023-06-10T08:04:00;42.00;32.80
35645;DHT22;21764;52.042;6.830;2023-06-10T08:09:00;41.90;32.40
35645;DHT22;21764;52.042;6.830;2023-06-10T08:14:01;41.70;32.60
35645;DHT22;21764;52.042;6.830;2023-06-10T08:19:02;42.80;31.40
35645;DHT22;21764;52.042;6.830;2023-06-10T08:24:03;41.70;32.50
35645;DHT22;21764;52.042;6.830;2023-06-10T08:29:04;42.20;32.10
35645;DHT22;21764;52.042;6.830;2023-06-10T08:34:04;42.50;32.10
35645;DHT22;21764;52.042;6.830;2023-06-10T08:39:05;42.70;31.90
35645;DHT22;21764;52.042;6.830;2023-06-10T08:44:21;43.20;31.80
35645;DHT22;21764;52.042;6.830;2023-06-10T08:49:23;40.40;33.50
35645;DHT22;21764;52.042;6.830;2023-06-10T08:54:27;42.40;32.10
35645;DHT22;21764;52.042;6.830;2023-06-10T08:59:29;43.50;31.30
35645;DHT22;21764;52.042;6.830;2023-06-10T09:04:30;44.30;31.20
35645;DHT22;21764;52.042;6.830;2023-06-10T09:09:31;46.50;30.00
35645;DHT22;21764;52.042;6.830;2023-06-10T09:14:32;46.50;30.00
35645;DHT22;21764;52.042;6.830;2023-06-10T09:19:33;47.80;28.50
35645;DHT22;21764;52.042;6.830;2023-06-10T09:24:35;46.80;28.60
35645;DHT22;21764;52.042;6.830;2023-06-10T09:29:55;44.30;30.20
35645;DHT22;21764;52.042;6.830;2023-06-10T09:34:58;42.50;31.10
35645;DHT22;21764;52.042;6.830;2023-06-10T09:40:07;46.40;30.00
35645;DHT22;21764;52.042;6.830;2023-06-10T09:45:09;49.50;28.70
35645;DHT22;21764;52.042;6.830;2023-06-10T09:50:10;49.00;28.30
35645;DHT22;21764;52.042;6.830;2023-06-10T09:55:11;46.40;29.10
35645;DHT22;21764;52.042;6.830;2023-06-10T10:00:12;46.40;29.20
35645;DHT22;21764;52.042;6.830;2023-06-10T10:05:14;48.00;28.70
35645;DHT22;21764;52.042;6.830;2023-06-10T10:10:16;47.70;28.80
35645;DHT22;21764;52.042;6.830;2023-06-10T10:15:18;46.70;29.30
35645;DHT22;21764;52.042;6.830;2023-06-10T10:20:22;46.50;29.20
35645;DHT22;21764;52.042;6.830;2023-06-10T10:25:41;46.40;29.30
35645;DHT22;21764;52.042;6.830;2023-06-10T10:30:46;42.80;31.60
35645;DHT22;21764;52.042;6.830;2023-06-10T10:35:49;46.20;29.20
35645;DHT22;21764;52.042;6.830;2023-06-10T10:40:51;45.50;29.60
35645;DHT22;21764;52.042;6.830;2023-06-10T10:46:02;38.20;34.40
35645;DHT22;21764;52.042;6.830;2023-06-10T10:51:07;34.00;38.30
35645;DHT22;21764;52.042;6.830;2023-06-10T10:56:14;31.40;42.40
35645;DHT22;21764;52.042;6.830;2023-06-10T11:01:15;30.40;43.70
35645;DHT22;21764;52.042;6.830;2023-06-10T11:06:17;30.00;44.30
35645;DHT22;21764;52.042;6.830;2023-06-10T11:11:24;29.50;45.10
35645;DHT22;21764;52.042;6.830;2023-06-10T11:16:28;29.00;46.60
35645;DHT22;21764;52.042;6.830;2023-06-10T11:21:29;28.70;47.00
35645;DHT22;21764;52.042;6.830;2023-06-10T11:26:30;28.90;46.70
35645;DHT22;21764;52.042;6.830;2023-06-10T11:31:38;28.60;43.80
35645;DHT22;21764;52.042;6.830;2023-06-10T11:36:42;28.70;43.80
35645;DHT22;21764;52.042;6.830;2023-06-10T11:41:45;29.00;45.70
35645;DHT22;21764;52.042;6.830;2023-06-10T11:46:48;28.80;46.20
35645;DHT22;21764;52.042;6.830;2023-06-10T11:51:49;29.10;45.80
35645;DHT22;21764;52.042;6.830;2023-06-10T11:56:57;28.80;43.50
35645;DHT22;21764;52.042;6.830;2023-06-10T12:01:58;28.60;45.00
35645;DHT22;21764;52.042;6.830;2023-06-10T12:06:59;28.20;47.10
35645;DHT22;21764;52.042;6.830;2023-06-10T12:12:04;28.40;44.20
35645;DHT22;21764;52.042;6.830;2023-06-10T12:17:07;28.60;44.30
35645;DHT22;21764;52.042;6.830;2023-06-10T12:22:08;28.80;44.00
35645;DHT22;21764;52.042;6.830;2023-06-10T12:27:12;28.80;43.20
35645;DHT22;21764;52.042;6.830;2023-06-10T12:32:13;28.70;43.20
35645;DHT22;21764;52.042;6.830;2023-06-10T12:37:15;28.70;42.90
35645;DHT22;21764;52.042;6.830;2023-06-10T12:42:17;28.60;43.10
35645;DHT22;21764;52.042;6.830;2023-06-10T12:47:17;28.60;44.00
35645;DHT22;21764;52.042;6.830;2023-06-10T12:52:18;28.30;44.10
35645;DHT22;21764;52.042;6.830;2023-06-10T12:57:19;28.60;44.50
35645;DHT22;21764;52.042;6.830;2023-06-10T13:02:20;28.80;45.10
35645;DHT22;21764;52.042;6.830;2023-06-10T13:07:21;28.80;44.80
35645;DHT22;21764;52.042;6.830;2023-06-10T13:12:25;28.80;44.60
35645;DHT22;21764;52.042;6.830;2023-06-10T13:17:25;28.70;44.40
35645;DHT22;21764;52.042;6.830;2023-06-10T13:22:27;28.90;45.60
35645;DHT22;21764;52.042;6.830;2023-06-10T13:27:27;28.90;44.40
35645;DHT22;21764;52.042;6.830;2023-06-10T13:32:28;28.60;44.10
35645;DHT22;21764;52.042;6.830;2023-06-10T13:37:29;28.70;44.60
35645;DHT22;21764;52.042;6.830;2023-06-10T13:42:30;28.60;44.00
35645;DHT22;21764;52.042;6.830;2023-06-10T13:47:30;28.60;43.80
35645;DHT22;21764;52.042;6.830;2023-06-10T13:52:31;28.70;44.80
35645;DHT22;21764;52.042;6.830;2023-06-10T13:57:32;28.60;44.30
35645;DHT22;21764;52.042;6.830;2023-06-10T14:02:33;28.80;45.30
35645;DHT22;21764;52.042;6.830;2023-06-10T14:07:35;28.90;45.40
35645;DHT22;21764;52.042;6.830;2023-06-10T14:12:37;29.00;43.70
35645;DHT22;21764;52.042;6.830;2023-06-10T14:17:38;28.90;44.20
35645;DHT22;21764;52.042;6.830;2023-06-10T14:22:38;29.00;45.30
35645;DHT22;21764;52.042;6.830;2023-06-10T14:27:41;29.20;45.10
35645;DHT22;21764;52.042;6.830;2023-06-10T14:32:42;29.00;43.30
35645;DHT22;21764;52.042;6.830;2023-06-10T14:37:43;29.00;44.60
35645;DHT22;21764;52.042;6.830;2023-06-10T14:42:44;28.90;45.90
35645;DHT22;21764;52.042;6.830;2023-06-10T14:47:44;28.90;45.70
35645;DHT22;21764;52.042;6.830;2023-06-10T14:52:47;29.00;45.70
35645;DHT22;21764;52.042;6.830;2023-06-10T14:57:48;28.90;45.40
35645;DHT22;21764;52.042;6.830;2023-06-10T15:02:48;29.00;46.00
35645;DHT22;21764;52.042;6.830;2023-06-10T15:07:49;29.10;44.60
35645;DHT22;21764;52.042;6.830;2023-06-10T15:12:50;29.00;44.10
35645;DHT22;21764;52.042;6.830;2023-06-10T15:17:55;29.00;43.90
35645;DHT22;21764;52.042;6.830;2023-06-10T15:22:56;29.00;44.50
35645;DHT22;21764;52.042;6.830;2023-06-10T15:27:57;29.10;44.90
35645;DHT22;21764;52.042;6.830;2023-06-10T15:32:57;28.90;44.30
35645;DHT22;21764;52.042;6.830;2023-06-10T15:37:58;29.00;44.80
35645;DHT22;21764;52.042;6.830;2023-06-10T15:42:59;29.00;44.70
35645;DHT22;21764;52.042;6.830;2023-06-10T15:48:00;28.90;44.60
35645;DHT22;21764;52.042;6.830;2023-06-10T15:53:00;28.80;45.90
35645;DHT22;21764;52.042;6.830;2023-06-10T15:58:01;28.80;45.30
35645;DHT22;21764;52.042;6.830;2023-06-10T16:03:04;28.80;44.70
35645;DHT22;21764;52.042;6.830;2023-06-10T16:08:05;28.80;45.70
35645;DHT22;21764;52.042;6.830;2023-06-10T16:13:05;28.80;45.00
35645;DHT22;21764;52.042;6.830;2023-06-10T16:18:07;28.70;44.50
35645;DHT22;21764;52.042;6.830;2023-06-10T16:23:08;28.60;45.10
35645;DHT22;21764;52.042;6.830;2023-06-10T16:28:09;28.60;45.40
35645;DHT22;21764;52.042;6.830;2023-06-10T16:33:09;28.50;45.60
35645;DHT22;21764;52.042;6.830;2023-06-10T16:38:10;28.40;45.30
35645;DHT22;21764;52.042;6.830;2023-06-10T16:43:11;28.60;45.70
35645;DHT22;21764;52.042;6.830;2023-06-10T16:48:12;28.40;44.50
35645;DHT22;21764;52.042;6.830;2023-06-10T16:53:13;28.50;44.90
35645;DHT22;21764;52.042;6.830;2023-06-10T16:58:14;28.40;45.50
35645;DHT22;21764;52.042;6.830;2023-06-10T17:03:14;28.30;45.20
35645;DHT22;21764;52.042;6.830;2023-06-10T17:08:15;28.30;45.50
35645;DHT22;21764;52.042;6.830;2023-06-10T17:13:16;28.30;45.80
35645;DHT22;21764;52.042;6.830;2023-06-10T17:18:16;28.20;46.20
35645;DHT22;21764;52.042;6.830;2023-06-10T17:23:17;28.10;45.80
35645;DHT22;21764;52.042;6.830;2023-06-10T17:28:18;28.10;46.30
35645;DHT22;21764;52.042;6.830;2023-06-10T17:33:18;28.00;46.10
35645;DHT22;21764;52.042;6.830;2023-06-10T17:38:19;28.00;46.90
35645;DHT22;21764;52.042;6.830;2023-06-10T17:43:22;27.90;47.20
35645;DHT22;21764;52.042;6.830;2023-06-10T17:48:24;27.80;47.10
35645;DHT22;21764;52.042;6.830;2023-06-10T17:53:24;27.70;47.50
35645;DHT22;21764;52.042;6.830;2023-06-10T17:58:25;27.70;47.70
35645;DHT22;21764;52.042;6.830;2023-06-10T18:03:26;27.60;47.90
35645;DHT22;21764;52.042;6.830;2023-06-10T18:08:26;27.50;48.00
35645;DHT22;21764;52.042;6.830;2023-06-10T18:13:28;27.40;48.10
35645;DHT22;21764;52.042;6.830;2023-06-10T18:18:29;27.30;48.60
35645;DHT22;21764;52.042;6.830;2023-06-10T18:23:29;27.20;48.90
35645;DHT22;21764;52.042;6.830;2023-06-10T18:28:30;27.10;49.20
35645;DHT22;21764;52.042;6.830;2023-06-10T18:33:32;27.00;49.40
35645;DHT22;21764;52.042;6.830;2023-06-10T18:38:32;26.90;49.70
35645;DHT22;21764;52.042;6.830;2023-06-10T18:43:33;26.70;50.30
35645;DHT22;21764;52.042;6.830;2023-06-10T18:48:34;26.60;50.60
35645;DHT22;21764;52.042;6.830;2023-06-10T18:53:34;26.50;50.70
35645;DHT22;21764;52.042;6.830;2023-06-10T18:58:35;26.40;50.90
35645;DHT22;21764;52.042;6.830;2023-06-10T19:03:36;26.20;51.30
35645;DHT22;21764;52.042;6.830;2023-06-10T19:08:36;26.10;51.70
35645;DHT22;21764;52.042;6.830;2023-06-10T19:13:37;25.90;52.20
35645;DHT22;21764;52.042;6.830;2023-06-10T19:18:38;25.80;52.60
35645;DHT22;21764;52.042;6.830;2023-06-10T19:23:38;25.70;53.10
35645;DHT22;21764;52.042;6.830;2023-06-10T19:28:42;25.50;53.50
35645;DHT22;21764;52.042;6.830;2023-06-10T19:33:42;25.40;53.80
35645;DHT22;21764;52.042;6.830;2023-06-10T19:38:43;25.20;54.40
35645;DHT22;21764;52.042;6.830;2023-06-10T19:43:44;25.10;55.00
35645;DHT22;21764;52.042;6.830;2023-06-10T19:48:48;24.90;55.40
35645;DHT22;21764;52.042;6.830;2023-06-10T19:53:49;24.80;56.00
35645;DHT22;21764;52.042;6.830;2023-06-10T19:58:49;24.60;56.60
35645;DHT22;21764;52.042;6.830;2023-06-10T20:03:50;24.40;57.00
35645;DHT22;21764;52.042;6.830;2023-06-10T20:08:51;24.40;57.50
35645;DHT22;21764;52.042;6.830;2023-06-10T20:13:52;24.20;57.90
35645;DHT22;21764;52.042;6.830;2023-06-10T20:18:52;24.10;58.40
35645;DHT22;21764;52.042;6.830;2023-06-10T20:23:53;24.00;58.90
35645;DHT22;21764;52.042;6.830;2023-06-10T20:28:53;23.90;59.50
35645;DHT22;21764;52.042;6.830;2023-06-10T20:33:54;23.70;59.90
35645;DHT22;21764;52.042;6.830;2023-06-10T20:38:55;23.60;60.60
35645;DHT22;21764;52.042;6.830;2023-06-10T20:43:56;23.50;61.30
35645;DHT22;21764;52.042;6.830;2023-06-10T20:48:57;23.40;61.70
35645;DHT22;21764;52.042;6.830;2023-06-10T20:54:01;23.40;62.40
35645;DHT22;21764;52.042;6.830;2023-06-10T20:59:02;23.30;63.00
35645;DHT22;21764;52.042;6.830;2023-06-10T21:04:02;23.20;63.40
35645;DHT22;21764;52.042;6.830;2023-06-10T21:09:06;23.10;64.00
35645;DHT22;21764;52.042;6.830;2023-06-10T21:14:07;23.00;64.70
35645;DHT22;21764;52.042;6.830;2023-06-10T21:19:07;22.90;65.10
35645;DHT22;21764;52.042;6.830;2023-06-10T21:24:08;22.80;65.50
35645;DHT22;21764;52.042;6.830;2023-06-10T21:29:09;22.80;66.00
35645;DHT22;21764;52.042;6.830;2023-06-10T21:34:10;22.70;66.60
35645;DHT22;21764;52.042;6.830;2023-06-10T21:39:10;22.60;67.10
35645;DHT22;21764;52.042;6.830;2023-06-10T21:44:11;22.40;67.70
35645;DHT22;21764;52.042;6.830;2023-06-10T21:49:11;22.40;68.30
35645;DHT22;21764;52.042;6.830;2023-06-10T21:54:12;22.30;68.90
35645;DHT22;21764;52.042;6.830;2023-06-10T21:59:16;22.20;69.30
35645;DHT22;21764;52.042;6.830;2023-06-10T22:04:18;22.10;69.80
35645;DHT22;21764;52.042;6.830;2023-06-10T22:09:18;22.10;70.30
35645;DHT22;21764;52.042;6.830;2023-06-10T22:14:19;22.10;70.70
35645;DHT22;21764;52.042;6.830;2023-06-10T22:19:20;22.00;71.00
35645;DHT22;21764;52.042;6.830;2023-06-10T22:24:20;21.90;71.40
35645;DHT22;21764;52.042;6.830;2023-06-10T22:29:21;21.80;72.10
35645;DHT22;21764;52.042;6.830;2023-06-10T22:34:22;21.70;72.60
35645;DHT22;21764;52.042;6.830;2023-06-10T22:39:22;21.70;73.10
35645;DHT22;21764;52.042;6.830;2023-06-10T22:44:24;21.60;73.50
35645;DHT22;21764;52.042;6.830;2023-06-10T22:49:25;21.50;73.80
35645;DHT22;21764;52.042;6.830;2023-06-10T22:54:25;21.50;74.30
35645;DHT22;21764;52.042;6.830;2023-06-10T22:59:27;21.40;74.70
35645;DHT22;21764;52.042;6.830;2023-06-10T23:04:27;21.30;75.20
35645;DHT22;21764;52.042;6.830;2023-06-10T23:09:28;21.20;75.70
35645;DHT22;21764;52.042;6.830;2023-06-10T23:14:29;21.10;76.30
35645;DHT22;21764;52.042;6.830;2023-06-10T23:19:29;21.00;76.40
35645;DHT22;21764;52.042;6.830;2023-06-10T23:24:30;20.90;76.10
35645;DHT22;21764;52.042;6.830;2023-06-10T23:29:31;20.90;76.10
35645;DHT22;21764;52.042;6.830;2023-06-10T23:34:31;20.80;76.00
35645;DHT22;21764;52.042;6.830;2023-06-10T23:39:32;20.80;75.70
35645;DHT22;21764;52.042;6.830;2023-06-10T23:44:33;20.70;75.60
35645;DHT22;21764;52.042;6.830;2023-06-10T23:49:33;20.70;75.40
35645;DHT22;21764;52.042;6.830;2023-06-10T23:54:34;20.70;75.30
35645;DHT22;21764;52.042;6.830;2023-06-10T23:59:35;20.70;75.50
